PWSweather.com
Personal Weather Stations
Station Observations
WODONGA
Wodonga, WodongaAU 3690

WodongaWodongaAU 3690

Lat: -36.121, Lon: 146.87

Elevation: 541

Station Type: Weather Station

http://www.wodongaweather.net

Latest ConditionsUpdated 6:15:00 PM GMT+10:10 Thursday, Oct 2, 2014
Currently Today's Max Today's Min Today's Average
Temperature 58.3°F14.6°C 69.8°F21.0°C 40.3°F4.6°C 53.9°F12.2°C
Dew Point 45.3°F7.4°C 49.6°F9.8°C 34.9°F1.6°C 42.0°F5.6°C
Winds 5.8 mph W9.3 kmh W 11.9 mph W19.2 kmh W - 4.6 mph 7.4 kmh
Wind Gusts 11.4 mph18.3 kmh 16.8 mph27.0 kmh - -
Humidity 62% 82% 46% 66%
Pressure 30.16 in1021.3 mb 30.25 in1024.4 mb 30.14 in1020.7 mb -
Hour Temp Dew Point Humidity Winds Wind Gusts Pressure Precip Precip Rate Daily Precip Total
06:15 PM 58.3°F14.6°C 45.3°F7.4°C 62% 5.8 mph W9.3 kmh W 11.4 mph18.3 kmh 30.16 in1021.3 mb 0.00 in0.0 mm 0.00 in/hr0.0 mm/hr 0.00 in0.0 mm
06:10 PM 58.6°F14.8°C 45.2°F7.3°C 61% 6.6 mph W10.6 kmh W 11.4 mph18.3 kmh 30.15 in1021.0 mb 0.00 in0.0 mm 0.00 in/hr0.0 mm/hr 0.00 in0.0 mm
06:05 PM 59.0°F15.0°C 45.6°F7.6°C 61% 7.0 mph W11.3 kmh W 9.8 mph15.8 kmh 30.15 in1021.0 mb 0.00 in0.0 mm 0.00 in/hr0.0 mm/hr 0.00 in0.0 mm
06:00 PM 59.4°F15.2°C 45.5°F7.5°C 60% 8.0 mph W12.9 kmh W 10.7 mph17.2 kmh 30.15 in1021.0 mb 0.00 in0.0 mm 0.00 in/hr0.0 mm/hr 0.00 in0.0 mm
05:55 PM 59.7°F15.4°C 45.8°F7.7°C 60% 6.5 mph W10.5 kmh W 10.7 mph17.2 kmh 30.15 in1021.0 mb 0.00 in0.0 mm 0.00 in/hr0.0 mm/hr 0.00 in0.0 mm
05:50 PM 59.9°F15.5°C 45.6°F7.6°C 59% 5.8 mph WSW9.3 kmh WSW 7.6 mph12.2 kmh 30.15 in1021.0 mb 0.00 in0.0 mm 0.00 in/hr0.0 mm/hr 0.00 in0.0 mm
05:45 PM 60.3°F15.7°C 45.9°F7.7°C 59% 5.9 mph WNW9.5 kmh WNW 9.2 mph14.8 kmh 30.15 in1021.0 mb 0.00 in0.0 mm 0.00 in/hr0.0 mm/hr 0.00 in0.0 mm
05:40 PM 60.6°F15.9°C 45.8°F7.7°C 58% 6.0 mph W9.7 kmh W 9.2 mph14.8 kmh 30.15 in1021.0 mb 0.00 in0.0 mm 0.00 in/hr0.0 mm/hr 0.00 in0.0 mm
05:35 PM 61.3°F16.3°C 46.0°F7.8°C 57% 4.9 mph W7.9 kmh W 6.9 mph11.1 kmh 30.15 in1021.0 mb 0.00 in0.0 mm 0.00 in/hr0.0 mm/hr 0.00 in0.0 mm
05:30 PM 61.7°F16.5°C 46.3°F7.9°C 57% 5.6 mph W9.0 kmh W 8.3 mph13.4 kmh 30.15 in1021.0 mb 0.00 in0.0 mm 0.00 in/hr0.0 mm/hr 0.00 in0.0 mm
05:25 PM 61.9°F16.6°C 46.0°F7.8°C 56% 6.6 mph W10.6 kmh W 9.8 mph15.8 kmh 30.15 in1021.0 mb 0.00 in0.0 mm 0.00 in/hr0.0 mm/hr 0.00 in0.0 mm
05:20 PM 62.4°F16.9°C 46.5°F8.1°C 56% 6.8 mph W10.9 kmh W 11.4 mph18.3 kmh 30.14 in1020.7 mb 0.00 in0.0 mm 0.00 in/hr0.0 mm/hr 0.00 in0.0 mm
05:15 PM 62.8°F17.1°C 46.4°F8.0°C 55% 6.9 mph WNW11.1 kmh WNW 11.4 mph18.3 kmh 30.14 in1020.7 mb 0.00 in0.0 mm 0.00 in/hr0.0 mm/hr 0.00 in0.0 mm
05:10 PM 63.3°F17.4°C 46.9°F8.3°C 55% 7.0 mph W11.3 kmh W 11.4 mph18.3 kmh 30.14 in1020.7 mb 0.00 in0.0 mm 0.00 in/hr0.0 mm/hr 0.00 in0.0 mm
05:08 PM 64.4°F18.0°C 47.4°F8.6°C 54% 9.0 mph WNW14.5 kmh WNW 11.4 mph18.3 kmh 30.14 in1020.7 mb 0.00 in0.0 mm 0.00 in/hr0.0 mm/hr 0.00 in0.0 mm
04:35 PM 64.9°F18.3°C 47.4°F8.6°C 53% 8.3 mph WNW13.4 kmh WNW 14.5 mph23.3 kmh 30.14 in1020.7 mb 0.00 in0.0 mm 0.00 in/hr0.0 mm/hr 0.00 in0.0 mm
04:30 PM 65.3°F18.5°C 47.7°F8.7°C 53% 7.2 mph WNW11.6 kmh WNW 14.5 mph23.3 kmh 30.14 in1020.7 mb 0.00 in0.0 mm 0.00 in/hr0.0 mm/hr 0.00 in0.0 mm
04:25 PM 65.3°F18.5°C 48.2°F9.0°C 54% 6.7 mph W10.8 kmh W 10.7 mph17.2 kmh 30.14 in1020.7 mb 0.00 in0.0 mm 0.00 in/hr0.0 mm/hr 0.00 in0.0 mm
04:20 PM 65.1°F18.4°C 48.1°F8.9°C 54% 8.5 mph WSW13.7 kmh WSW 16.8 mph27.0 kmh 30.14 in1020.7 mb 0.00 in0.0 mm 0.00 in/hr0.0 mm/hr 0.00 in0.0 mm
04:15 PM 65.1°F18.4°C 48.1°F8.9°C 54% 10.3 mph W16.6 kmh W 16.8 mph27.0 kmh 30.14 in1020.7 mb 0.00 in0.0 mm 0.00 in/hr0.0 mm/hr 0.00 in0.0 mm
04:10 PM 64.8°F18.2°C 47.7°F8.7°C 54% 10.9 mph W17.5 kmh W 15.2 mph24.5 kmh 30.14 in1020.7 mb 0.00 in0.0 mm 0.00 in/hr0.0 mm/hr 0.00 in0.0 mm
04:05 PM 65.1°F18.4°C 47.6°F8.7°C 53% 9.9 mph W15.9 kmh W 15.2 mph24.5 kmh 30.14 in1020.7 mb 0.00 in0.0 mm 0.00 in/hr0.0 mm/hr 0.00 in0.0 mm
04:00 PM 66.0°F18.9°C 47.9°F8.8°C 52% 8.1 mph WSW13.0 kmh WSW 11.4 mph18.3 kmh 30.14 in1020.7 mb 0.00 in0.0 mm 0.00 in/hr0.0 mm/hr 0.00 in0.0 mm
03:55 PM 66.0°F18.9°C 48.4°F9.1°C 53% 7.7 mph W12.4 kmh W 13.0 mph20.9 kmh 30.14 in1020.7 mb 0.00 in0.0 mm 0.00 in/hr0.0 mm/hr 0.00 in0.0 mm
03:50 PM 66.2°F19.0°C 48.1°F8.9°C 52% 8.8 mph W14.2 kmh W 13.0 mph20.9 kmh 30.14 in1020.7 mb 0.00 in0.0 mm 0.00 in/hr0.0 mm/hr 0.00 in0.0 mm
03:45 PM 66.2°F19.0°C 48.1°F8.9°C 52% 10.4 mph W16.7 kmh W 15.2 mph24.5 kmh 30.14 in1020.7 mb 0.00 in0.0 mm 0.00 in/hr0.0 mm/hr 0.00 in0.0 mm
03:40 PM 66.7°F19.3°C 48.1°F8.9°C 51% 9.1 mph W14.6 kmh W 15.2 mph24.5 kmh 30.14 in1020.7 mb 0.00 in0.0 mm 0.00 in/hr0.0 mm/hr 0.00 in0.0 mm
03:35 PM 67.3°F19.6°C 48.0°F8.9°C 50% 9.4 mph W15.1 kmh W 14.5 mph23.3 kmh 30.14 in1020.7 mb 0.00 in0.0 mm 0.00 in/hr0.0 mm/hr 0.00 in0.0 mm
03:30 PM 67.5°F19.7°C 48.7°F9.3°C 51% 10.8 mph WSW17.4 kmh WSW 14.5 mph23.3 kmh 30.14 in1020.7 mb 0.00 in0.0 mm 0.00 in/hr0.0 mm/hr 0.00 in0.0 mm
03:25 PM 67.6°F19.8°C 48.4°F9.1°C 50% 9.7 mph W15.6 kmh W 13.0 mph20.9 kmh 30.14 in1020.7 mb 0.00 in0.0 mm 0.00 in/hr0.0 mm/hr 0.00 in0.0 mm
03:20 PM 67.6°F19.8°C 48.4°F9.1°C 50% 10.4 mph W16.7 kmh W 15.2 mph24.5 kmh 30.14 in1020.7 mb 0.00 in0.0 mm 0.00 in/hr0.0 mm/hr 0.00 in0.0 mm
03:15 PM 67.5°F19.7°C 47.7°F8.7°C 49% 11.9 mph W19.2 kmh W 15.9 mph25.6 kmh 30.14 in1020.7 mb 0.00 in0.0 mm 0.00 in/hr0.0 mm/hr 0.00 in0.0 mm
03:10 PM 68.0°F20.0°C 48.1°F8.9°C 49% 10.2 mph W16.4 kmh W 15.9 mph25.6 kmh 30.14 in1020.7 mb 0.00 in0.0 mm 0.00 in/hr0.0 mm/hr 0.00 in0.0 mm
03:05 PM 68.9°F20.5°C 48.4°F9.1°C 48% 9.1 mph WSW14.6 kmh WSW 13.6 mph21.9 kmh 30.14 in1020.7 mb 0.00 in0.0 mm 0.00 in/hr0.0 mm/hr 0.00 in0.0 mm
03:00 PM 68.7°F20.4°C 48.8°F9.3°C 49% 8.3 mph WSW13.4 kmh WSW 13.6 mph21.9 kmh 30.14 in1020.7 mb 0.00 in0.0 mm 0.00 in/hr0.0 mm/hr 0.00 in0.0 mm
02:55 PM 68.9°F20.5°C 49.0°F9.4°C 49% 7.4 mph WSW11.9 kmh WSW 10.7 mph17.2 kmh 30.14 in1020.7 mb 0.00 in0.0 mm 0.00 in/hr0.0 mm/hr 0.00 in0.0 mm
02:50 PM 69.1°F20.6°C 48.6°F9.2°C 48% 9.6 mph WSW15.4 kmh WSW 13.6 mph21.9 kmh 30.14 in1020.7 mb 0.00 in0.0 mm 0.00 in/hr0.0 mm/hr 0.00 in0.0 mm
02:45 PM 69.1°F20.6°C 48.6°F9.2°C 48% 9.5 mph WSW15.3 kmh WSW 13.6 mph21.9 kmh 30.14 in1020.7 mb 0.00 in0.0 mm 0.00 in/hr0.0 mm/hr 0.00 in0.0 mm
02:40 PM 69.8°F21.0°C 49.2°F9.6°C 48% 7.1 mph WSW11.4 kmh WSW 10.7 mph17.2 kmh 30.14 in1020.7 mb 0.00 in0.0 mm 0.00 in/hr0.0 mm/hr 0.00 in0.0 mm
02:35 PM 69.6°F20.9°C 49.6°F9.8°C 49% 6.8 mph W10.9 kmh W 11.4 mph18.3 kmh 30.14 in1020.7 mb 0.00 in0.0 mm 0.00 in/hr0.0 mm/hr 0.00 in0.0 mm
02:30 PM 68.9°F20.5°C 49.0°F9.4°C 49% 9.2 mph W14.8 kmh W 16.8 mph27.0 kmh 30.14 in1020.7 mb 0.00 in0.0 mm 0.00 in/hr0.0 mm/hr 0.00 in0.0 mm
02:25 PM 68.4°F20.2°C 47.9°F8.8°C 48% 11.1 mph WNW17.9 kmh WNW 16.8 mph27.0 kmh 30.15 in1021.0 mb 0.00 in0.0 mm 0.00 in/hr0.0 mm/hr 0.00 in0.0 mm
02:20 PM 68.9°F20.5°C 47.3°F8.5°C 46% 9.7 mph W15.6 kmh W 16.8 mph27.0 kmh 30.15 in1021.0 mb 0.00 in0.0 mm 0.00 in/hr0.0 mm/hr 0.00 in0.0 mm
02:15 PM 69.3°F20.7°C 48.2°F9.0°C 47% 8.1 mph WSW13.0 kmh WSW 11.4 mph18.3 kmh 30.15 in1021.0 mb 0.00 in0.0 mm 0.00 in/hr0.0 mm/hr 0.00 in0.0 mm
02:10 PM 69.1°F20.6°C 48.6°F9.2°C 48% 8.6 mph W13.8 kmh W 12.1 mph19.5 kmh 30.15 in1021.0 mb 0.00 in0.0 mm 0.00 in/hr0.0 mm/hr 0.00 in0.0 mm
02:05 PM 69.3°F20.7°C 48.2°F9.0°C 47% 9.7 mph W15.6 kmh W 14.5 mph23.3 kmh 30.16 in1021.3 mb 0.00 in0.0 mm 0.00 in/hr0.0 mm/hr 0.00 in0.0 mm
02:00 PM 68.9°F20.5°C 47.9°F8.8°C 47% 9.6 mph W15.4 kmh W 14.5 mph23.3 kmh 30.16 in1021.3 mb 0.00 in0.0 mm 0.00 in/hr0.0 mm/hr 0.00 in0.0 mm
01:55 PM 68.5°F20.3°C 48.6°F9.2°C 49% 8.7 mph W14.0 kmh W 12.1 mph19.5 kmh 30.16 in1021.3 mb 0.00 in0.0 mm 0.00 in/hr0.0 mm/hr 0.00 in0.0 mm
01:50 PM 67.8°F19.9°C 48.0°F8.9°C 49% 9.2 mph W14.8 kmh W 12.1 mph19.5 kmh 30.16 in1021.3 mb 0.00 in0.0 mm 0.00 in/hr0.0 mm/hr 0.00 in0.0 mm
01:45 PM 67.6°F19.8°C 47.3°F8.5°C 48% 9.3 mph W15.0 kmh W 13.6 mph21.9 kmh 30.16 in1021.3 mb 0.00 in0.0 mm 0.00 in/hr0.0 mm/hr 0.00 in0.0 mm
01:40 PM 68.2°F20.1°C 47.8°F8.8°C 48% 7.5 mph W12.1 kmh W 13.6 mph21.9 kmh 30.17 in1021.7 mb 0.00 in0.0 mm 0.00 in/hr0.0 mm/hr 0.00 in0.0 mm
01:35 PM 68.7°F20.4°C 48.8°F9.3°C 49% 7.1 mph W11.4 kmh W 9.8 mph15.8 kmh 30.17 in1021.7 mb 0.00 in0.0 mm 0.00 in/hr0.0 mm/hr 0.00 in0.0 mm
01:30 PM 68.2°F20.1°C 48.3°F9.1°C 49% 8.1 mph W13.0 kmh W 13.6 mph21.9 kmh 30.17 in1021.7 mb 0.00 in0.0 mm 0.00 in/hr0.0 mm/hr 0.00 in0.0 mm
01:25 PM 68.0°F20.0°C 48.7°F9.3°C 50% 7.6 mph W12.2 kmh W 13.6 mph21.9 kmh 30.17 in1021.7 mb 0.00 in0.0 mm 0.00 in/hr0.0 mm/hr 0.00 in0.0 mm
01:20 PM 68.5°F20.3°C 48.6°F9.2°C 49% 9.3 mph W15.0 kmh W 16.8 mph27.0 kmh 30.17 in1021.7 mb 0.00 in0.0 mm 0.00 in/hr0.0 mm/hr 0.00 in0.0 mm
01:15 PM 67.6°F19.8°C 47.8°F8.8°C 49% 10.2 mph W16.4 kmh W 16.8 mph27.0 kmh 30.17 in1021.7 mb 0.00 in0.0 mm 0.00 in/hr0.0 mm/hr 0.00 in0.0 mm
01:10 PM 67.5°F19.7°C 48.2°F9.0°C 50% 9.6 mph WNW15.4 kmh WNW 14.5 mph23.3 kmh 30.17 in1021.7 mb 0.00 in0.0 mm 0.00 in/hr0.0 mm/hr 0.00 in0.0 mm
01:05 PM 67.5°F19.7°C 47.7°F8.7°C 49% 11.2 mph WNW18.0 kmh WNW 15.2 mph24.5 kmh 30.18 in1022.0 mb 0.00 in0.0 mm 0.00 in/hr0.0 mm/hr 0.00 in0.0 mm
01:00 PM 67.6°F19.8°C 47.8°F8.8°C 49% 9.1 mph WNW14.6 kmh WNW 15.2 mph24.5 kmh 30.18 in1022.0 mb 0.00 in0.0 mm 0.00 in/hr0.0 mm/hr 0.00 in0.0 mm
12:55 PM 67.8°F19.9°C 48.5°F9.2°C 50% 7.2 mph WSW11.6 kmh WSW 13.0 mph20.9 kmh 30.18 in1022.0 mb 0.00 in0.0 mm 0.00 in/hr0.0 mm/hr 0.00 in0.0 mm
12:50 PM 68.0°F20.0°C 48.7°F9.3°C 50% 8.0 mph W12.9 kmh W 13.0 mph20.9 kmh 30.19 in1022.4 mb 0.00 in0.0 mm 0.00 in/hr0.0 mm/hr 0.00 in0.0 mm
12:45 PM 67.5°F19.7°C 48.2°F9.0°C 50% 8.4 mph WSW13.5 kmh WSW 12.1 mph19.5 kmh 30.18 in1022.0 mb 0.00 in0.0 mm 0.00 in/hr0.0 mm/hr 0.00 in0.0 mm
12:40 PM 66.7°F19.3°C 49.1°F9.5°C 53% 9.5 mph W15.3 kmh W 13.0 mph20.9 kmh 30.18 in1022.0 mb 0.00 in0.0 mm 0.00 in/hr0.0 mm/hr 0.00 in0.0 mm
12:35 PM 66.0°F18.9°C 47.9°F8.8°C 52% 10.3 mph W16.6 kmh W 14.5 mph23.3 kmh 30.19 in1022.4 mb 0.00 in0.0 mm 0.00 in/hr0.0 mm/hr 0.00 in0.0 mm
12:30 PM 65.7°F18.7°C 47.6°F8.7°C 52% 10.8 mph W17.4 kmh W 14.5 mph23.3 kmh 30.19 in1022.4 mb 0.00 in0.0 mm 0.00 in/hr0.0 mm/hr 0.00 in0.0 mm
12:25 PM 65.5°F18.6°C 46.9°F8.3°C 51% 11.9 mph WNW19.2 kmh WNW 14.5 mph23.3 kmh 30.19 in1022.4 mb 0.00 in0.0 mm 0.00 in/hr0.0 mm/hr 0.00 in0.0 mm
12:20 PM 65.5°F18.6°C 46.9°F8.3°C 51% 10.9 mph NW17.5 kmh NW 14.5 mph23.3 kmh 30.19 in1022.4 mb 0.00 in0.0 mm 0.00 in/hr0.0 mm/hr 0.00 in0.0 mm
12:15 PM 66.0°F18.9°C 46.9°F8.3°C 50% 10.1 mph W16.3 kmh W 13.6 mph21.9 kmh 30.20 in1022.7 mb 0.00 in0.0 mm 0.00 in/hr0.0 mm/hr 0.00 in0.0 mm
12:10 PM 65.5°F18.6°C 47.4°F8.6°C 52% 10.7 mph W17.2 kmh W 13.6 mph21.9 kmh 30.20 in1022.7 mb 0.00 in0.0 mm 0.00 in/hr0.0 mm/hr 0.00 in0.0 mm
12:05 PM 65.3°F18.5°C 46.7°F8.2°C 51% 11.2 mph W18.0 kmh W 15.9 mph25.6 kmh 30.20 in1022.7 mb 0.00 in0.0 mm 0.00 in/hr0.0 mm/hr 0.00 in0.0 mm
12:00 PM 65.1°F18.4°C 46.0°F7.8°C 50% 11.2 mph W18.0 kmh W 16.8 mph27.0 kmh 30.20 in1022.7 mb 0.00 in0.0 mm 0.00 in/hr0.0 mm/hr 0.00 in0.0 mm
11:55 AM 65.7°F18.7°C 46.5°F8.1°C 50% 9.5 mph W15.3 kmh W 16.8 mph27.0 kmh 30.20 in1022.7 mb 0.00 in0.0 mm 0.00 in/hr0.0 mm/hr 0.00 in0.0 mm
11:50 AM 65.1°F18.4°C 46.6°F8.1°C 51% 9.0 mph W14.5 kmh W 13.0 mph20.9 kmh 30.20 in1022.7 mb 0.00 in0.0 mm 0.00 in/hr0.0 mm/hr 0.00 in0.0 mm
11:45 AM 64.9°F18.3°C 45.9°F7.7°C 50% 8.9 mph W14.3 kmh W 13.0 mph20.9 kmh 30.20 in1022.7 mb 0.00 in0.0 mm 0.00 in/hr0.0 mm/hr 0.00 in0.0 mm
11:40 AM 65.5°F18.6°C 45.8°F7.7°C 49% 8.2 mph W13.2 kmh W 11.4 mph18.3 kmh 30.21 in1023.0 mb 0.00 in0.0 mm 0.00 in/hr0.0 mm/hr 0.00 in0.0 mm
11:35 AM 66.4°F19.1°C 47.2°F8.4°C 50% 6.5 mph W10.5 kmh W 10.7 mph17.2 kmh 30.21 in1023.0 mb 0.00 in0.0 mm 0.00 in/hr0.0 mm/hr 0.00 in0.0 mm
11:30 AM 66.4°F19.1°C 48.2°F9.0°C 52% 4.8 mph W7.7 kmh W 8.3 mph13.4 kmh 30.21 in1023.0 mb 0.00 in0.0 mm 0.00 in/hr0.0 mm/hr 0.00 in0.0 mm
11:25 AM 66.0°F18.9°C 48.9°F9.4°C 54% 5.3 mph W8.5 kmh W 8.3 mph13.4 kmh 30.20 in1022.7 mb 0.00 in0.0 mm 0.00 in/hr0.0 mm/hr 0.00 in0.0 mm
11:20 AM 64.9°F18.3°C 47.4°F8.6°C 53% 6.1 mph W9.8 kmh W 8.3 mph13.4 kmh 30.21 in1023.0 mb 0.00 in0.0 mm 0.00 in/hr0.0 mm/hr 0.00 in0.0 mm
11:15 AM 64.2°F17.9°C 46.7°F8.2°C 53% 6.6 mph W10.6 kmh W 9.2 mph14.8 kmh 30.21 in1023.0 mb 0.00 in0.0 mm 0.00 in/hr0.0 mm/hr 0.00 in0.0 mm
11:10 AM 63.5°F17.5°C 45.6°F7.6°C 52% 7.3 mph W11.7 kmh W 9.8 mph15.8 kmh 30.21 in1023.0 mb 0.00 in0.0 mm 0.00 in/hr0.0 mm/hr 0.00 in0.0 mm
11:05 AM 63.3°F17.4°C 45.9°F7.7°C 53% 7.9 mph WNW12.7 kmh WNW 9.8 mph15.8 kmh 30.21 in1023.0 mb 0.00 in0.0 mm 0.00 in/hr0.0 mm/hr 0.00 in0.0 mm
11:00 AM 63.1°F17.3°C 46.2°F7.9°C 54% 7.8 mph W12.6 kmh W 9.8 mph15.8 kmh 30.21 in1023.0 mb 0.00 in0.0 mm 0.00 in/hr0.0 mm/hr 0.00 in0.0 mm
10:55 AM 63.3°F17.4°C 46.4°F8.0°C 54% 7.4 mph W11.9 kmh W 11.4 mph18.3 kmh 30.22 in1023.4 mb 0.00 in0.0 mm 0.00 in/hr0.0 mm/hr 0.00 in0.0 mm
10:50 AM 63.3°F17.4°C 46.4°F8.0°C 54% 6.7 mph W10.8 kmh W 11.4 mph18.3 kmh 30.22 in1023.4 mb 0.00 in0.0 mm 0.00 in/hr0.0 mm/hr 0.00 in0.0 mm
10:45 AM 62.1°F16.7°C 46.7°F8.2°C 57% 7.1 mph W11.4 kmh W 10.7 mph17.2 kmh 30.22 in1023.4 mb 0.00 in0.0 mm 0.00 in/hr0.0 mm/hr 0.00 in0.0 mm
10:40 AM 61.7°F16.5°C 45.9°F7.7°C 56% 8.7 mph WNW14.0 kmh WNW 13.6 mph21.9 kmh 30.22 in1023.4 mb 0.00 in0.0 mm 0.00 in/hr0.0 mm/hr 0.00 in0.0 mm
10:35 AM 61.2°F16.2°C 45.4°F7.4°C 56% 8.2 mph WNW13.2 kmh WNW 13.6 mph21.9 kmh 30.22 in1023.4 mb 0.00 in0.0 mm 0.00 in/hr0.0 mm/hr 0.00 in0.0 mm
10:30 AM 61.7°F16.5°C 46.3°F7.9°C 57% 5.8 mph W9.3 kmh W 9.2 mph14.8 kmh 30.22 in1023.4 mb 0.00 in0.0 mm 0.00 in/hr0.0 mm/hr 0.00 in0.0 mm
10:25 AM 61.0°F16.1°C 46.6°F8.1°C 59% 5.2 mph WSW8.4 kmh WSW 9.2 mph14.8 kmh 30.22 in1023.4 mb 0.00 in0.0 mm 0.00 in/hr0.0 mm/hr 0.00 in0.0 mm
10:20 AM 59.9°F15.5°C 46.0°F7.8°C 60% 5.8 mph WNW9.3 kmh WNW 8.3 mph13.4 kmh 30.22 in1023.4 mb 0.00 in0.0 mm 0.00 in/hr0.0 mm/hr 0.00 in0.0 mm
10:15 AM 59.0°F15.0°C 46.9°F8.3°C 64% 4.8 mph NW7.7 kmh NW 6.9 mph11.1 kmh 30.22 in1023.4 mb 0.00 in0.0 mm 0.00 in/hr0.0 mm/hr 0.00 in0.0 mm
10:10 AM 58.6°F14.8°C 46.5°F8.1°C 64% 5.0 mph NW8.0 kmh NW 9.2 mph14.8 kmh 30.22 in1023.4 mb 0.00 in0.0 mm 0.00 in/hr0.0 mm/hr 0.00 in0.0 mm
10:05 AM 58.1°F14.5°C 46.0°F7.8°C 64% 6.5 mph NW10.5 kmh NW 11.4 mph18.3 kmh 30.22 in1023.4 mb 0.00 in0.0 mm 0.00 in/hr0.0 mm/hr 0.00 in0.0 mm
10:00 AM 58.3°F14.6°C 46.6°F8.1°C 65% 5.1 mph NNW8.2 kmh NNW 11.4 mph18.3 kmh 30.23 in1023.7 mb 0.00 in0.0 mm 0.00 in/hr0.0 mm/hr 0.00 in0.0 mm
09:55 AM 57.7°F14.3°C 46.9°F8.3°C 67% 4.8 mph NW7.7 kmh NW 6.9 mph11.1 kmh 30.23 in1023.7 mb 0.00 in0.0 mm 0.00 in/hr0.0 mm/hr 0.00 in0.0 mm
09:50 AM 56.8°F13.8°C 45.6°F7.6°C 66% 5.7 mph NW9.2 kmh NW 8.3 mph13.4 kmh 30.24 in1024.0 mb 0.00 in0.0 mm 0.00 in/hr0.0 mm/hr 0.00 in0.0 mm
09:45 AM 56.8°F13.8°C 46.0°F7.8°C 67% 5.9 mph NNW9.5 kmh NNW 9.2 mph14.8 kmh 30.23 in1023.7 mb 0.00 in0.0 mm 0.00 in/hr0.0 mm/hr 0.00 in0.0 mm
09:40 AM 56.3°F13.5°C 45.1°F7.3°C 66% 5.9 mph NW9.5 kmh NW 9.2 mph14.8 kmh 30.24 in1024.0 mb 0.00 in0.0 mm 0.00 in/hr0.0 mm/hr 0.00 in0.0 mm
09:35 AM 56.1°F13.4°C 45.7°F7.6°C 68% 5.6 mph NW9.0 kmh NW 7.6 mph12.2 kmh 30.24 in1024.0 mb 0.00 in0.0 mm 0.00 in/hr0.0 mm/hr 0.00 in0.0 mm
09:30 AM 55.2°F12.9°C 44.9°F7.2°C 68% 5.3 mph NW8.5 kmh NW 7.6 mph12.2 kmh 30.24 in1024.0 mb 0.00 in0.0 mm 0.00 in/hr0.0 mm/hr 0.00 in0.0 mm
09:25 AM 54.7°F12.6°C 44.7°F7.1°C 69% 4.9 mph NW7.9 kmh NW 7.6 mph12.2 kmh 30.24 in1024.0 mb 0.00 in0.0 mm 0.00 in/hr0.0 mm/hr 0.00 in0.0 mm
09:20 AM 53.8°F12.1°C 43.5°F6.4°C 68% 5.2 mph NW8.4 kmh NW 6.9 mph11.1 kmh 30.24 in1024.0 mb 0.00 in0.0 mm 0.00 in/hr0.0 mm/hr 0.00 in0.0 mm
09:15 AM 53.4°F11.9°C 43.5°F6.4°C 69% 5.1 mph NNW8.2 kmh NNW 6.9 mph11.1 kmh 30.24 in1024.0 mb 0.00 in0.0 mm 0.00 in/hr0.0 mm/hr 0.00 in0.0 mm
09:10 AM 53.4°F11.9°C 43.5°F6.4°C 69% 4.0 mph NNW6.4 kmh NNW 6.0 mph9.7 kmh 30.25 in1024.4 mb 0.00 in0.0 mm 0.00 in/hr0.0 mm/hr 0.00 in0.0 mm
09:05 AM 53.1°F11.7°C 43.5°F6.4°C 70% 4.2 mph NNW6.8 kmh NNW 6.9 mph11.1 kmh 30.24 in1024.0 mb 0.00 in0.0 mm 0.00 in/hr0.0 mm/hr 0.00 in0.0 mm
09:00 AM 52.5°F11.4°C 43.0°F6.1°C 70% 4.5 mph N7.2 kmh N 6.9 mph11.1 kmh 30.24 in1024.0 mb 0.00 in0.0 mm 0.00 in/hr0.0 mm/hr 0.00 in0.0 mm
08:55 AM 52.5°F11.4°C 43.0°F6.1°C 70% 4.3 mph NNW6.9 kmh NNW 6.0 mph9.7 kmh 30.24 in1024.0 mb 0.00 in0.0 mm 0.00 in/hr0.0 mm/hr 0.00 in0.0 mm
08:50 AM 52.5°F11.4°C 42.7°F5.9°C 69% 3.4 mph WNW5.5 kmh WNW 5.4 mph8.7 kmh 30.25 in1024.4 mb 0.00 in0.0 mm 0.00 in/hr0.0 mm/hr 0.00 in0.0 mm
08:45 AM 52.3°F11.3°C 42.9°F6.1°C 70% 3.1 mph NW5.0 kmh NW 6.9 mph11.1 kmh 30.25 in1024.4 mb 0.00 in0.0 mm 0.00 in/hr0.0 mm/hr 0.00 in0.0 mm
08:40 AM 51.6°F10.9°C 42.5°F5.8°C 71% 3.0 mph N4.8 kmh N 6.9 mph11.1 kmh 30.25 in1024.4 mb 0.00 in0.0 mm 0.00 in/hr0.0 mm/hr 0.00 in0.0 mm
08:35 AM 51.6°F10.9°C 42.9°F6.1°C 72% 2.3 mph NNE3.7 kmh NNE 4.5 mph7.2 kmh 30.25 in1024.4 mb 0.00 in0.0 mm 0.00 in/hr0.0 mm/hr 0.00 in0.0 mm
08:30 AM 50.5°F10.3°C 41.9°F5.5°C 72% 2.8 mph NE4.5 kmh NE 4.5 mph7.2 kmh 30.25 in1024.4 mb 0.00 in0.0 mm 0.00 in/hr0.0 mm/hr 0.00 in0.0 mm
08:25 AM 50.0°F10.0°C 41.3°F5.2°C 72% 3.3 mph N5.3 kmh N 4.5 mph7.2 kmh 30.25 in1024.4 mb 0.00 in0.0 mm 0.00 in/hr0.0 mm/hr 0.00 in0.0 mm
08:20 AM 49.3°F9.6°C 41.0°F5.0°C 73% 2.8 mph N4.5 kmh N 4.5 mph7.2 kmh 30.24 in1024.0 mb 0.00 in0.0 mm 0.00 in/hr0.0 mm/hr 0.00 in0.0 mm
08:15 AM 48.9°F9.4°C 41.0°F5.0°C 74% 2.2 mph N3.5 kmh N 6.0 mph9.7 kmh 30.24 in1024.0 mb 0.00 in0.0 mm 0.00 in/hr0.0 mm/hr 0.00 in0.0 mm
08:05 AM 48.0°F8.9°C 40.5°F4.7°C 75% 3.2 mph NNW5.1 kmh NNW 4.5 mph7.2 kmh 30.25 in1024.4 mb 0.00 in0.0 mm 0.00 in/hr0.0 mm/hr 0.00 in0.0 mm
08:00 AM 47.7°F8.7°C 40.1°F4.5°C 75% 3.3 mph NNW5.3 kmh NNW 4.5 mph7.2 kmh 30.25 in1024.4 mb 0.00 in0.0 mm 0.00 in/hr0.0 mm/hr 0.00 in0.0 mm
07:55 AM 47.1°F8.4°C 40.0°F4.4°C 76% 2.8 mph NNW4.5 kmh NNW 4.5 mph7.2 kmh 30.25 in1024.4 mb 0.00 in0.0 mm 0.00 in/hr0.0 mm/hr 0.00 in0.0 mm
07:50 AM 46.9°F8.3°C 40.1°F4.5°C 77% 2.7 mph NW4.3 kmh NW 4.5 mph7.2 kmh 30.25 in1024.4 mb 0.00 in0.0 mm 0.00 in/hr0.0 mm/hr 0.00 in0.0 mm
07:45 AM 46.2°F7.9°C 39.7°F4.3°C 78% 2.8 mph NW4.5 kmh NW 3.1 mph5.0 kmh 30.25 in1024.4 mb 0.00 in0.0 mm 0.00 in/hr0.0 mm/hr 0.00 in0.0 mm
07:40 AM 45.5°F7.5°C 39.0°F3.9°C 78% 2.8 mph NW4.5 kmh NW 3.8 mph6.1 kmh 30.24 in1024.0 mb 0.00 in0.0 mm 0.00 in/hr0.0 mm/hr 0.00 in0.0 mm
07:35 AM 45.3°F7.4°C 38.9°F3.8°C 78% 2.4 mph NW3.9 kmh NW 3.8 mph6.1 kmh 30.24 in1024.0 mb 0.00 in0.0 mm 0.00 in/hr0.0 mm/hr 0.00 in0.0 mm
07:30 AM 44.8°F7.1°C 38.7°F3.7°C 79% 2.6 mph NW4.2 kmh NW 4.5 mph7.2 kmh 30.24 in1024.0 mb 0.00 in0.0 mm 0.00 in/hr0.0 mm/hr 0.00 in0.0 mm
07:25 AM 44.2°F6.8°C 38.5°F3.6°C 80% 2.9 mph NW4.7 kmh NW 4.5 mph7.2 kmh 30.24 in1024.0 mb 0.00 in0.0 mm 0.00 in/hr0.0 mm/hr 0.00 in0.0 mm
07:20 AM 43.9°F6.6°C 38.1°F3.4°C 80% 2.2 mph NW3.5 kmh NW 3.8 mph6.1 kmh 30.24 in1024.0 mb 0.00 in0.0 mm 0.00 in/hr0.0 mm/hr 0.00 in0.0 mm
07:15 AM 43.3°F6.3°C 37.9°F3.3°C 81% 1.9 mph NW3.1 kmh NW 3.8 mph6.1 kmh 30.24 in1024.0 mb 0.00 in0.0 mm 0.00 in/hr0.0 mm/hr 0.00 in0.0 mm
07:10 AM 43.2°F6.2°C 37.7°F3.2°C 81% 1.9 mph WNW3.1 kmh WNW 3.1 mph5.0 kmh 30.24 in1024.0 mb 0.00 in0.0 mm 0.00 in/hr0.0 mm/hr 0.00 in0.0 mm
07:05 AM 43.0°F6.1°C 37.6°F3.1°C 81% 1.2 mph W1.9 kmh W 3.1 mph5.0 kmh 30.23 in1023.7 mb 0.00 in0.0 mm 0.00 in/hr0.0 mm/hr 0.00 in0.0 mm
07:00 AM 42.6°F5.9°C 37.5°F3.1°C 82% 0.6 mph SSW1.0 kmh SSW 1.6 mph2.6 kmh 30.24 in1024.0 mb 0.00 in0.0 mm 0.00 in/hr0.0 mm/hr 0.00 in0.0 mm
06:55 AM 42.3°F5.7°C 37.2°F2.9°C 82% 0.2 mph E0.3 kmh E 0.7 mph1.1 kmh 30.24 in1024.0 mb 0.00 in0.0 mm 0.00 in/hr0.0 mm/hr 0.00 in0.0 mm
06:50 AM 41.9°F5.5°C 36.8°F2.7°C 82% 0.6 mph E1.0 kmh E 1.6 mph2.6 kmh 30.23 in1023.7 mb 0.00 in0.0 mm 0.00 in/hr0.0 mm/hr 0.00 in0.0 mm
06:45 AM 41.7°F5.4°C 36.6°F2.6°C 82% 0.9 mph SE1.4 kmh SE 1.6 mph2.6 kmh 30.23 in1023.7 mb 0.00 in0.0 mm 0.00 in/hr0.0 mm/hr 0.00 in0.0 mm
06:40 AM 41.5°F5.3°C 36.5°F2.5°C 82% 0.7 mph S1.1 kmh S 1.6 mph2.6 kmh 30.23 in1023.7 mb 0.00 in0.0 mm 0.00 in/hr0.0 mm/hr 0.00 in0.0 mm
06:35 AM 41.2°F5.1°C 36.1°F2.3°C 82% 0.5 mph S0.8 kmh S 1.6 mph2.6 kmh 30.24 in1024.0 mb 0.00 in0.0 mm 0.00 in/hr0.0 mm/hr 0.00 in0.0 mm
06:30 AM 41.0°F5.0°C 35.9°F2.2°C 82% 0.2 mph S0.3 kmh S 0.7 mph1.1 kmh 30.23 in1023.7 mb 0.00 in0.0 mm 0.00 in/hr0.0 mm/hr 0.00 in0.0 mm
06:25 AM 41.0°F5.0°C 35.9°F2.2°C 82% 0.7 mph SSE1.1 kmh SSE 1.6 mph2.6 kmh 30.23 in1023.7 mb 0.00 in0.0 mm 0.00 in/hr0.0 mm/hr 0.00 in0.0 mm
06:20 AM 40.8°F4.9°C 35.8°F2.1°C 82% 1.1 mph SSE1.8 kmh SSE 1.6 mph2.6 kmh 30.24 in1024.0 mb 0.00 in0.0 mm 0.00 in/hr0.0 mm/hr 0.00 in0.0 mm
06:15 AM 40.6°F4.8°C 35.6°F2.0°C 82% 0.7 mph S1.1 kmh S 1.6 mph2.6 kmh 30.23 in1023.7 mb 0.00 in0.0 mm 0.00 in/hr0.0 mm/hr 0.00 in0.0 mm
06:10 AM 40.5°F4.7°C 35.4°F1.9°C 82% 0.4 mph SW0.6 kmh SW 0.7 mph1.1 kmh 30.23 in1023.7 mb 0.00 in0.0 mm 0.00 in/hr0.0 mm/hr 0.00 in0.0 mm
06:05 AM 40.5°F4.7°C 35.4°F1.9°C 82% 0.6 mph SSW1.0 kmh SSW 1.6 mph2.6 kmh 30.23 in1023.7 mb 0.00 in0.0 mm 0.00 in/hr0.0 mm/hr 0.00 in0.0 mm
06:00 AM 40.5°F4.7°C 35.4°F1.9°C 82% 0.6 mph S1.0 kmh S 1.6 mph2.6 kmh 30.22 in1023.4 mb 0.00 in0.0 mm 0.00 in/hr0.0 mm/hr 0.00 in0.0 mm
05:55 AM 40.5°F4.7°C 35.4°F1.9°C 82% 0.3 mph S0.5 kmh S 0.7 mph1.1 kmh 30.22 in1023.4 mb 0.00 in0.0 mm 0.00 in/hr0.0 mm/hr 0.00 in0.0 mm
05:50 AM 40.5°F4.7°C 35.4°F1.9°C 82% Calm Calm -- 30.22 in1023.4 mb 0.00 in0.0 mm 0.00 in/hr0.0 mm/hr 0.00 in0.0 mm
05:45 AM 40.3°F4.6°C 35.2°F1.8°C 82% 0.1 mph S0.2 kmh S 0.7 mph1.1 kmh 30.22 in1023.4 mb 0.00 in0.0 mm 0.00 in/hr0.0 mm/hr 0.00 in0.0 mm
05:40 AM 40.3°F4.6°C 35.2°F1.8°C 82% 0.5 mph S0.8 kmh S 1.6 mph2.6 kmh 30.22 in1023.4 mb 0.00 in0.0 mm 0.00 in/hr0.0 mm/hr 0.00 in0.0 mm
05:35 AM 40.5°F4.7°C 35.4°F1.9°C 82% 0.7 mph S1.1 kmh S 1.6 mph2.6 kmh 30.22 in1023.4 mb 0.00 in0.0 mm 0.00 in/hr0.0 mm/hr 0.00 in0.0 mm
05:30 AM 40.6°F4.8°C 35.6°F2.0°C 82% 0.6 mph S1.0 kmh S 0.7 mph1.1 kmh 30.22 in1023.4 mb 0.00 in0.0 mm 0.00 in/hr0.0 mm/hr 0.00 in0.0 mm
05:25 AM 40.6°F4.8°C 35.6°F2.0°C 82% 0.6 mph S1.0 kmh S 0.7 mph1.1 kmh 30.22 in1023.4 mb 0.00 in0.0 mm 0.00 in/hr0.0 mm/hr 0.00 in0.0 mm
05:20 AM 40.5°F4.7°C 35.4°F1.9°C 82% 0.5 mph S0.8 kmh S 0.7 mph1.1 kmh 30.22 in1023.4 mb 0.00 in0.0 mm 0.00 in/hr0.0 mm/hr 0.00 in0.0 mm
05:15 AM 40.5°F4.7°C 35.4°F1.9°C 82% 0.2 mph S0.3 kmh S 0.7 mph1.1 kmh 30.22 in1023.4 mb 0.00 in0.0 mm 0.00 in/hr0.0 mm/hr 0.00 in0.0 mm
05:10 AM 40.5°F4.7°C 35.4°F1.9°C 82% 0.7 mph N1.1 kmh N 2.2 mph3.5 kmh 30.22 in1023.4 mb 0.00 in0.0 mm 0.00 in/hr0.0 mm/hr 0.00 in0.0 mm
05:05 AM 40.3°F4.6°C 34.9°F1.6°C 81% 1.0 mph NNE1.6 kmh NNE 2.2 mph3.5 kmh 30.21 in1023.0 mb 0.00 in0.0 mm 0.00 in/hr0.0 mm/hr 0.00 in0.0 mm
05:00 AM 40.8°F4.9°C 35.5°F1.9°C 81% 0.8 mph SE1.3 kmh SE 2.2 mph3.5 kmh 30.22 in1023.4 mb 0.00 in0.0 mm 0.00 in/hr0.0 mm/hr 0.00 in0.0 mm
04:55 AM 41.0°F5.0°C 35.6°F2.0°C 81% 1.1 mph S1.8 kmh S 2.2 mph3.5 kmh 30.21 in1023.0 mb 0.00 in0.0 mm 0.00 in/hr0.0 mm/hr 0.00 in0.0 mm
04:50 AM 41.2°F5.1°C 35.5°F1.9°C 80% 0.6 mph S1.0 kmh S 2.2 mph3.5 kmh 30.21 in1023.0 mb 0.00 in0.0 mm 0.00 in/hr0.0 mm/hr 0.00 in0.0 mm
04:45 AM 41.4°F5.2°C 35.7°F2.1°C 80% 0.2 mph S0.3 kmh S 0.7 mph1.1 kmh 30.22 in1023.4 mb 0.00 in0.0 mm 0.00 in/hr0.0 mm/hr 0.00 in0.0 mm
04:40 AM 41.4°F5.2°C 35.7°F2.1°C 80% 0.5 mph SSW0.8 kmh SSW 1.6 mph2.6 kmh 30.21 in1023.0 mb 0.00 in0.0 mm 0.00 in/hr0.0 mm/hr 0.00 in0.0 mm
04:35 AM 41.4°F5.2°C 36.0°F2.2°C 81% 0.5 mph SW0.8 kmh SW 1.6 mph2.6 kmh 30.21 in1023.0 mb 0.00 in0.0 mm 0.00 in/hr0.0 mm/hr 0.00 in0.0 mm
04:30 AM 41.2°F5.1°C 35.8°F2.1°C 81% 0.4 mph W0.6 kmh W 1.6 mph2.6 kmh 30.22 in1023.4 mb 0.00 in0.0 mm 0.00 in/hr0.0 mm/hr 0.00 in0.0 mm
04:25 AM 40.8°F4.9°C 35.5°F1.9°C 81% 0.6 mph NW1.0 kmh NW 1.6 mph2.6 kmh 30.21 in1023.0 mb 0.00 in0.0 mm 0.00 in/hr0.0 mm/hr 0.00 in0.0 mm
04:20 AM 40.6°F4.8°C 35.3°F1.8°C 81% 1.0 mph SSW1.6 kmh SSW 1.6 mph2.6 kmh 30.21 in1023.0 mb 0.00 in0.0 mm 0.00 in/hr0.0 mm/hr 0.00 in0.0 mm
04:15 AM 40.8°F4.9°C 35.5°F1.9°C 81% 1.5 mph S2.4 kmh S 2.2 mph3.5 kmh 30.21 in1023.0 mb 0.00 in0.0 mm 0.00 in/hr0.0 mm/hr 0.00 in0.0 mm
04:10 AM 41.0°F5.0°C 35.6°F2.0°C 81% 1.7 mph S2.7 kmh S 2.2 mph3.5 kmh 30.21 in1023.0 mb 0.00 in0.0 mm 0.00 in/hr0.0 mm/hr 0.00 in0.0 mm
04:05 AM 41.0°F5.0°C 35.3°F1.8°C 80% 1.7 mph S2.7 kmh S 2.2 mph3.5 kmh 30.21 in1023.0 mb 0.00 in0.0 mm 0.00 in/hr0.0 mm/hr 0.00 in0.0 mm
04:00 AM 41.2°F5.1°C 35.5°F1.9°C 80% 1.6 mph S2.6 kmh S 1.6 mph2.6 kmh 30.21 in1023.0 mb 0.00 in0.0 mm 0.00 in/hr0.0 mm/hr 0.00 in0.0 mm
03:55 AM 41.4°F5.2°C 35.3°F1.8°C 79% 1.1 mph S1.8 kmh S 1.6 mph2.6 kmh 30.21 in1023.0 mb 0.00 in0.0 mm 0.00 in/hr0.0 mm/hr 0.00 in0.0 mm
03:50 AM 41.4°F5.2°C 35.3°F1.8°C 79% 0.3 mph SSW0.5 kmh SSW 1.6 mph2.6 kmh 30.21 in1023.0 mb 0.00 in0.0 mm 0.00 in/hr0.0 mm/hr 0.00 in0.0 mm
03:45 AM 41.5°F5.3°C 35.5°F1.9°C 79% Calm Calm -- 30.21 in1023.0 mb 0.00 in0.0 mm 0.00 in/hr0.0 mm/hr 0.00 in0.0 mm
03:40 AM 41.7°F5.4°C 35.7°F2.1°C 79% 0.1 mph SW0.2 kmh SW 0.7 mph1.1 kmh 30.21 in1023.0 mb 0.00 in0.0 mm 0.00 in/hr0.0 mm/hr 0.00 in0.0 mm
03:35 AM 41.9°F5.5°C 35.9°F2.2°C 79% 0.1 mph S0.2 kmh S 0.7 mph1.1 kmh 30.21 in1023.0 mb 0.00 in0.0 mm 0.00 in/hr0.0 mm/hr 0.00 in0.0 mm
03:30 AM 42.1°F5.6°C 36.0°F2.2°C 79% 0.4 mph ENE0.6 kmh ENE 0.7 mph1.1 kmh 30.21 in1023.0 mb 0.00 in0.0 mm 0.00 in/hr0.0 mm/hr 0.00 in0.0 mm
03:25 AM 42.1°F5.6°C 36.0°F2.2°C 79% 0.7 mph ENE1.1 kmh ENE 1.6 mph2.6 kmh 30.21 in1023.0 mb 0.00 in0.0 mm 0.00 in/hr0.0 mm/hr 0.00 in0.0 mm
03:20 AM 42.3°F5.7°C 35.9°F2.2°C 78% 1.2 mph SE1.9 kmh SE 1.6 mph2.6 kmh 30.21 in1023.0 mb 0.00 in0.0 mm 0.00 in/hr0.0 mm/hr 0.00 in0.0 mm
03:15 AM 42.4°F5.8°C 36.1°F2.3°C 78% 1.3 mph SSE2.1 kmh SSE 1.6 mph2.6 kmh 30.21 in1023.0 mb 0.00 in0.0 mm 0.00 in/hr0.0 mm/hr 0.00 in0.0 mm
03:10 AM 42.6°F5.9°C 36.3°F2.4°C 78% 1.1 mph S1.8 kmh S 1.6 mph2.6 kmh 30.21 in1023.0 mb 0.00 in0.0 mm 0.00 in/hr0.0 mm/hr 0.00 in0.0 mm
03:05 AM 42.6°F5.9°C 36.3°F2.4°C 78% 1.2 mph S1.9 kmh S 1.6 mph2.6 kmh 30.21 in1023.0 mb 0.00 in0.0 mm 0.00 in/hr0.0 mm/hr 0.00 in0.0 mm
03:00 AM 42.6°F5.9°C 36.3°F2.4°C 78% 1.3 mph S2.1 kmh S 1.6 mph2.6 kmh 30.21 in1023.0 mb 0.00 in0.0 mm 0.00 in/hr0.0 mm/hr 0.00 in0.0 mm
02:55 AM 42.6°F5.9°C 36.3°F2.4°C 78% 0.9 mph S1.4 kmh S 1.6 mph2.6 kmh 30.21 in1023.0 mb 0.00 in0.0 mm 0.00 in/hr0.0 mm/hr 0.00 in0.0 mm
02:50 AM 42.8°F6.0°C 36.4°F2.4°C 78% 0.8 mph NW1.3 kmh NW 1.6 mph2.6 kmh 30.21 in1023.0 mb 0.00 in0.0 mm 0.00 in/hr0.0 mm/hr 0.00 in0.0 mm
02:45 AM 42.6°F5.9°C 36.3°F2.4°C 78% 0.8 mph NW1.3 kmh NW 1.6 mph2.6 kmh 30.22 in1023.4 mb 0.00 in0.0 mm 0.00 in/hr0.0 mm/hr 0.00 in0.0 mm
02:40 AM 43.0°F6.1°C 36.3°F2.4°C 77% 0.6 mph S1.0 kmh S 1.6 mph2.6 kmh 30.21 in1023.0 mb 0.00 in0.0 mm 0.00 in/hr0.0 mm/hr 0.00 in0.0 mm
02:35 AM 43.2°F6.2°C 36.4°F2.4°C 77% 1.1 mph S1.8 kmh S 1.6 mph2.6 kmh 30.22 in1023.4 mb 0.00 in0.0 mm 0.00 in/hr0.0 mm/hr 0.00 in0.0 mm
02:30 AM 43.3°F6.3°C 36.6°F2.6°C 77% 1.6 mph S2.6 kmh S 2.2 mph3.5 kmh 30.22 in1023.4 mb 0.00 in0.0 mm 0.00 in/hr0.0 mm/hr 0.00 in0.0 mm
02:25 AM 43.3°F6.3°C 36.3°F2.4°C 76% 1.6 mph S2.6 kmh S 2.2 mph3.5 kmh 30.22 in1023.4 mb 0.00 in0.0 mm 0.00 in/hr0.0 mm/hr 0.00 in0.0 mm
02:20 AM 43.5°F6.4°C 36.5°F2.5°C 76% 1.0 mph S1.6 kmh S 1.6 mph2.6 kmh 30.22 in1023.4 mb 0.00 in0.0 mm 0.00 in/hr0.0 mm/hr 0.00 in0.0 mm
02:15 AM 43.7°F6.5°C 36.6°F2.6°C 76% 0.8 mph S1.3 kmh S 1.6 mph2.6 kmh 30.22 in1023.4 mb 0.00 in0.0 mm 0.00 in/hr0.0 mm/hr 0.00 in0.0 mm
02:10 AM 43.9°F6.6°C 36.8°F2.7°C 76% 1.0 mph SE1.6 kmh SE 1.6 mph2.6 kmh 30.22 in1023.4 mb 0.00 in0.0 mm 0.00 in/hr0.0 mm/hr 0.00 in0.0 mm
02:05 AM 43.9°F6.6°C 36.8°F2.7°C 76% 1.2 mph ESE1.9 kmh ESE 2.2 mph3.5 kmh 30.23 in1023.7 mb 0.00 in0.0 mm 0.00 in/hr0.0 mm/hr 0.00 in0.0 mm
02:00 AM 43.9°F6.6°C 36.5°F2.5°C 75% 1.5 mph SSE2.4 kmh SSE 2.2 mph3.5 kmh 30.23 in1023.7 mb 0.00 in0.0 mm 0.00 in/hr0.0 mm/hr 0.00 in0.0 mm
01:55 AM 43.9°F6.6°C 36.5°F2.5°C 75% 1.2 mph S1.9 kmh S 2.2 mph3.5 kmh 30.23 in1023.7 mb 0.00 in0.0 mm 0.00 in/hr0.0 mm/hr 0.00 in0.0 mm
01:50 AM 44.1°F6.7°C 36.7°F2.6°C 75% 1.6 mph SSW2.6 kmh SSW 3.1 mph5.0 kmh 30.23 in1023.7 mb 0.00 in0.0 mm 0.00 in/hr0.0 mm/hr 0.00 in0.0 mm
01:45 AM 43.9°F6.6°C 36.5°F2.5°C 75% 2.6 mph NW4.2 kmh NW 4.5 mph7.2 kmh 30.23 in1023.7 mb 0.00 in0.0 mm 0.00 in/hr0.0 mm/hr 0.00 in0.0 mm
01:40 AM 43.9°F6.6°C 36.5°F2.5°C 75% 2.1 mph N3.4 kmh N 4.5 mph7.2 kmh 30.22 in1023.4 mb 0.00 in0.0 mm 0.00 in/hr0.0 mm/hr 0.00 in0.0 mm
01:35 AM 44.1°F6.7°C 36.3°F2.4°C 74% 1.3 mph N2.1 kmh N 2.2 mph3.5 kmh 30.23 in1023.7 mb 0.00 in0.0 mm 0.00 in/hr0.0 mm/hr 0.00 in0.0 mm
01:30 AM 44.1°F6.7°C 36.3°F2.4°C 74% 1.1 mph N1.8 kmh N 1.6 mph2.6 kmh 30.23 in1023.7 mb 0.00 in0.0 mm 0.00 in/hr0.0 mm/hr 0.00 in0.0 mm
01:25 AM 44.1°F6.7°C 36.3°F2.4°C 74% 0.7 mph W1.1 kmh W 1.6 mph2.6 kmh 30.23 in1023.7 mb 0.00 in0.0 mm 0.00 in/hr0.0 mm/hr 0.00 in0.0 mm
01:20 AM 44.6°F7.0°C 36.5°F2.5°C 73% 1.0 mph SSE1.6 kmh SSE 2.2 mph3.5 kmh 30.22 in1023.4 mb 0.00 in0.0 mm 0.00 in/hr0.0 mm/hr 0.00 in0.0 mm
01:15 AM 45.1°F7.3°C 36.7°F2.6°C 72% 1.3 mph SSE2.1 kmh SSE 2.2 mph3.5 kmh 30.23 in1023.7 mb 0.00 in0.0 mm 0.00 in/hr0.0 mm/hr 0.00 in0.0 mm
01:10 AM 45.5°F7.5°C 37.0°F2.8°C 72% 1.1 mph S1.8 kmh S 1.6 mph2.6 kmh 30.23 in1023.7 mb 0.00 in0.0 mm 0.00 in/hr0.0 mm/hr 0.00 in0.0 mm
01:05 AM 45.7°F7.6°C 37.2°F2.9°C 72% 1.1 mph S1.8 kmh S 2.2 mph3.5 kmh 30.23 in1023.7 mb 0.00 in0.0 mm 0.00 in/hr0.0 mm/hr 0.00 in0.0 mm
01:00 AM 45.9°F7.7°C 37.0°F2.8°C 71% 0.9 mph S1.4 kmh S 2.2 mph3.5 kmh 30.23 in1023.7 mb 0.00 in0.0 mm 0.00 in/hr0.0 mm/hr 0.00 in0.0 mm
12:55 AM 46.0°F7.8°C 37.2°F2.9°C 71% 0.9 mph S1.4 kmh S 2.2 mph3.5 kmh 30.23 in1023.7 mb 0.00 in0.0 mm 0.00 in/hr0.0 mm/hr 0.00 in0.0 mm
12:50 AM 46.0°F7.8°C 37.2°F2.9°C 71% 1.1 mph S1.8 kmh S 2.2 mph3.5 kmh 30.24 in1024.0 mb 0.00 in0.0 mm 0.00 in/hr0.0 mm/hr 0.00 in0.0 mm
12:45 AM 46.2°F7.9°C 37.0°F2.8°C 70% 0.9 mph S1.4 kmh S 1.6 mph2.6 kmh 30.23 in1023.7 mb 0.00 in0.0 mm 0.00 in/hr0.0 mm/hr 0.00 in0.0 mm
12:40 AM 46.4°F8.0°C 37.2°F2.9°C 70% 0.7 mph WNW1.1 kmh WNW 1.6 mph2.6 kmh 30.23 in1023.7 mb 0.00 in0.0 mm 0.00 in/hr0.0 mm/hr 0.00 in0.0 mm
12:35 AM 46.4°F8.0°C 37.2°F2.9°C 70% 1.3 mph NW2.1 kmh NW 3.1 mph5.0 kmh 30.24 in1024.0 mb 0.00 in0.0 mm 0.00 in/hr0.0 mm/hr 0.00 in0.0 mm
12:30 AM 46.6°F8.1°C 37.0°F2.8°C 69% 1.6 mph NW2.6 kmh NW 3.1 mph5.0 kmh 30.24 in1024.0 mb 0.00 in0.0 mm 0.00 in/hr0.0 mm/hr 0.00 in0.0 mm
12:25 AM 46.8°F8.2°C 37.1°F2.8°C 69% 1.0 mph WNW1.6 kmh WNW 1.6 mph2.6 kmh 30.24 in1024.0 mb 0.00 in0.0 mm 0.00 in/hr0.0 mm/hr 0.00 in0.0 mm
12:20 AM 46.9°F8.3°C 37.3°F2.9°C 69% 1.2 mph NE1.9 kmh NE 2.2 mph3.5 kmh 30.24 in1024.0 mb 0.00 in0.0 mm 0.00 in/hr0.0 mm/hr 0.00 in0.0 mm
12:15 AM 47.1°F8.4°C 37.1°F2.8°C 68% 1.3 mph E2.1 kmh E 2.2 mph3.5 kmh 30.24 in1024.0 mb 0.00 in0.0 mm 0.00 in/hr0.0 mm/hr 0.00 in0.0 mm
12:10 AM 47.3°F8.5°C 37.3°F2.9°C 68% 1.2 mph SE1.9 kmh SE 1.6 mph2.6 kmh 30.24 in1024.0 mb 0.00 in0.0 mm 0.00 in/hr0.0 mm/hr 0.00 in0.0 mm
12:05 AM 47.5°F8.6°C 37.1°F2.8°C 67% 1.0 mph SSE1.6 kmh SSE 1.6 mph2.6 kmh 30.24 in1024.0 mb 0.00 in0.0 mm 0.00 in/hr0.0 mm/hr 0.00 in0.0 mm
12:00 AM 47.7°F8.7°C 37.3°F2.9°C 67% 1.3 mph S2.1 kmh S 3.1 mph5.0 kmh 30.25 in1024.4 mb 0.00 in0.0 mm 0.00 in/hr0.0 mm/hr 0.00 in0.0 mm